createdAt,value
2022-10-09T00:00:51.433Z,9.10
2022-10-09T00:05:58.038Z,9.10
2022-10-09T00:11:08.125Z,9.10
2022-10-09T00:16:16.235Z,9.10
2022-10-09T00:21:24.491Z,9.00
2022-10-09T00:26:30.650Z,9.00
2022-10-09T00:31:38.347Z,9.00
2022-10-09T00:36:43.564Z,9.00
2022-10-09T00:41:48.778Z,8.90
2022-10-09T00:46:54.097Z,8.90
2022-10-09T00:52:02.318Z,8.80
2022-10-09T00:57:07.937Z,8.80
2022-10-09T01:02:13.202Z,8.70
2022-10-09T01:07:30.205Z,8.70
2022-10-09T01:12:59.571Z,8.60
2022-10-09T01:18:28.291Z,8.60
2022-10-09T01:23:55.808Z,8.60
2022-10-09T01:29:03.970Z,8.50
2022-10-09T01:34:10.489Z,8.50
2022-10-09T01:39:21.159Z,8.50
2022-10-09T01:44:29.490Z,8.50
2022-10-09T01:49:54.240Z,8.50
2022-10-09T01:55:33.204Z,8.50
2022-10-09T02:00:44.180Z,8.50
2022-10-09T02:05:52.408Z,8.50
2022-10-09T02:11:00.534Z,8.40
2022-10-09T02:16:20.777Z,8.30
2022-10-09T02:21:28.947Z,8.30
2022-10-09T02:26:34.571Z,8.30
2022-10-09T02:31:42.625Z,8.30
2022-10-09T02:36:50.086Z,8.30
2022-10-09T02:41:55.239Z,8.20
2022-10-09T02:47:00.307Z,8.20
2022-10-09T02:52:05.823Z,8.20
2022-10-09T02:57:10.950Z,8.30
2022-10-09T03:02:17.873Z,8.50
2022-10-09T03:07:23.130Z,8.50
2022-10-09T03:12:28.298Z,8.60
2022-10-09T03:17:33.400Z,8.70
2022-10-09T03:22:38.465Z,8.70
2022-10-09T03:27:43.759Z,8.80
2022-10-09T03:32:50.296Z,8.90
2022-10-09T03:37:55.854Z,8.90
2022-10-09T03:43:01.016Z,8.90
2022-10-09T03:48:06.613Z,8.90
2022-10-09T03:53:13.246Z,9.00
2022-10-09T03:58:18.447Z,9.00
2022-10-09T04:03:23.625Z,9.00
2022-10-09T04:08:29.177Z,9.00
2022-10-09T04:13:34.250Z,9.00
2022-10-09T04:18:40.352Z,9.00
2022-10-09T04:23:46.179Z,9.00
2022-10-09T04:28:52.921Z,9.00
2022-10-09T04:33:58.058Z,9.00
2022-10-09T04:39:03.233Z,9.00
2022-10-09T04:44:08.503Z,9.00
2022-10-09T04:49:15.931Z,9.00
2022-10-09T04:54:21.070Z,9.00
2022-10-09T04:59:26.230Z,9.00
2022-10-09T05:04:31.450Z,9.00
2022-10-09T05:09:36.568Z,9.00
2022-10-09T05:14:41.967Z,9.00
2022-10-09T05:19:47.359Z,9.00
2022-10-09T05:24:52.536Z,9.00
2022-10-09T05:29:58.197Z,9.00
2022-10-09T05:35:04.709Z,9.10
2022-10-09T05:40:28.352Z,9.10
2022-10-09T05:45:42.139Z,9.10
2022-10-09T05:50:52.792Z,9.10
2022-10-09T05:56:03.618Z,9.10
2022-10-09T06:01:10.173Z,9.20
2022-10-09T06:06:30.509Z,9.20
2022-10-09T06:11:51.749Z,9.30
2022-10-09T06:17:13.581Z,9.30
2022-10-09T06:22:44.597Z,9.40
2022-10-09T06:27:59.099Z,9.40
2022-10-09T06:33:17.386Z,9.40
2022-10-09T06:44:20.283Z,9.50
2022-10-09T06:49:27.928Z,9.60
2022-10-09T06:54:33.715Z,9.70
2022-10-09T06:59:40.362Z,9.70
2022-10-09T07:04:45.583Z,9.80
2022-10-09T07:09:52.581Z,9.90
2022-10-09T07:14:57.717Z,10.00
2022-10-09T07:25:48.458Z,10.20
2022-10-09T07:30:54.327Z,10.30
2022-10-09T07:36:02.556Z,10.40
2022-10-09T07:41:12.228Z,10.50
2022-10-09T07:46:34.474Z,10.70
2022-10-09T07:52:03.921Z,10.60
2022-10-09T07:57:35.185Z,10.60
2022-10-09T08:02:51.754Z,10.70
2022-10-09T08:08:07.875Z,10.80
2022-10-09T08:13:21.176Z,11.00
2022-10-09T08:18:51.105Z,10.90
2022-10-09T08:24:01.604Z,11.00
2022-10-09T08:29:13.010Z,11.00
2022-10-09T08:34:19.340Z,11.20
2022-10-09T08:39:24.605Z,11.40
2022-10-09T08:44:51.033Z,11.60
2022-10-09T08:50:07.311Z,11.70
2022-10-09T08:55:40.440Z,11.70
2022-10-09T09:00:58.095Z,11.80
2022-10-09T09:06:23.211Z,12.00
2022-10-09T09:12:20.082Z,12.10
2022-10-09T09:18:04.341Z,12.30
2022-10-09T09:23:13.272Z,12.50
2022-10-09T09:28:33.632Z,12.60
2022-10-09T09:33:58.437Z,12.80
2022-10-09T09:40:07.880Z,13.00
2022-10-09T09:44:23.307Z,13.40
2022-10-09T09:49:30.947Z,13.60
2022-10-09T09:54:36.126Z,13.70
2022-10-09T09:59:44.291Z,13.70
2022-10-09T10:05:00.170Z,14.40
2022-10-09T10:10:22.422Z,14.40
2022-10-09T10:15:46.612Z,14.50
2022-10-09T10:20:58.594Z,14.10
2022-10-09T10:26:12.490Z,14.00
2022-10-09T10:31:20.785Z,14.00
2022-10-09T10:36:46.505Z,13.90
2022-10-09T10:41:55.637Z,14.20
2022-10-09T10:47:07.084Z,14.40
2022-10-09T10:52:37.740Z,14.50
2022-10-09T10:58:14.391Z,14.50
2022-10-09T11:03:31.435Z,15.10
2022-10-09T11:08:51.112Z,16.20
2022-10-09T11:14:19.295Z,15.90
2022-10-09T11:19:45.093Z,16.00
2022-10-09T11:25:09.455Z,16.40
2022-10-09T11:30:17.910Z,16.10
2022-10-09T11:35:26.098Z,16.10
2022-10-09T11:40:35.148Z,16.90
2022-10-09T11:46:01.350Z,17.50
2022-10-09T11:51:18.693Z,16.90
2022-10-09T11:56:29.878Z,16.80
2022-10-09T12:01:41.057Z,16.90
2022-10-09T12:06:54.746Z,16.90
2022-10-09T12:12:06.939Z,16.90
2022-10-09T12:17:29.227Z,16.90
2022-10-09T12:22:37.635Z,16.90
2022-10-09T12:27:43.841Z,16.80
2022-10-09T12:33:09.893Z,16.50
2022-10-09T12:38:41.229Z,16.10
2022-10-09T12:43:59.932Z,16.50
2022-10-09T12:54:50.869Z,16.90
2022-10-09T13:00:06.778Z,16.70
2022-10-09T13:05:34.216Z,16.70
2022-10-09T13:10:41.500Z,16.60
2022-10-09T13:15:46.932Z,16.80
2022-10-09T13:21:28.098Z,16.50
2022-10-09T13:26:34.255Z,16.10
2022-10-09T13:31:42.656Z,15.80
2022-10-09T13:36:48.045Z,15.60
2022-10-09T13:41:56.638Z,15.30
2022-10-09T13:47:05.051Z,15.10
2022-10-09T13:52:11.328Z,15.00
2022-10-09T13:57:16.759Z,15.20
2022-10-09T14:02:22.281Z,15.40
2022-10-09T14:07:27.512Z,15.40
2022-10-09T14:12:32.829Z,15.50
2022-10-09T14:17:45.042Z,15.50
2022-10-09T14:22:55.632Z,15.40
2022-10-09T14:28:09.545Z,15.20
2022-10-09T14:33:13.101Z,15.10
2022-10-09T14:38:18.723Z,15.00
2022-10-09T14:43:24.161Z,14.90
2022-10-09T14:48:31.534Z,14.90
2022-10-09T14:53:36.965Z,14.90
2022-10-09T14:58:43.096Z,14.70
2022-10-09T15:03:49.568Z,14.60
2022-10-09T15:09:04.641Z,14.40
2022-10-09T15:14:08.236Z,14.20
2022-10-09T15:19:13.459Z,14.00
2022-10-09T15:24:18.800Z,13.80
2022-10-09T15:29:27.560Z,13.60
2022-10-09T15:34:40.656Z,13.40
2022-10-09T15:39:44.551Z,13.20
2022-10-09T15:44:49.941Z,13.00
2022-10-09T15:49:57.115Z,12.80
2022-10-09T15:55:02.678Z,12.60
2022-10-09T16:00:10.087Z,12.50
2022-10-09T16:05:15.517Z,12.30
2022-10-09T16:10:21.510Z,12.20
2022-10-09T16:15:36.615Z,11.90
2022-10-09T16:26:27.345Z,11.40
2022-10-09T16:31:36.744Z,11.10
2022-10-09T16:36:43.538Z,10.90
2022-10-09T16:41:51.848Z,10.70
2022-10-09T16:46:57.319Z,10.60
2022-10-09T16:52:03.540Z,10.50
2022-10-09T16:57:10.336Z,10.40
2022-10-09T17:02:16.948Z,10.30
2022-10-09T17:07:28.265Z,10.20
2022-10-09T17:12:38.265Z,10.20
2022-10-09T17:17:47.880Z,10.00
2022-10-09T17:22:54.919Z,9.70
2022-10-09T17:28:07.664Z,9.60
2022-10-09T17:33:11.092Z,9.40
2022-10-09T17:38:16.518Z,9.30
2022-10-09T17:43:22.952Z,9.20
2022-10-09T17:48:32.667Z,9.10
2022-10-09T17:53:38.305Z,9.00
2022-10-09T17:58:44.937Z,9.00
2022-10-09T18:03:51.935Z,8.80
2022-10-09T18:08:58.443Z,8.70
2022-10-09T18:14:08.175Z,8.70
2022-10-09T18:19:24.484Z,8.60
2022-10-09T18:24:31.526Z,8.40
2022-10-09T18:29:40.494Z,8.30
2022-10-09T18:34:46.681Z,8.20
2022-10-09T18:39:52.360Z,8.10
2022-10-09T18:44:57.721Z,8.00
2022-10-09T18:50:06.801Z,7.90
2022-10-09T18:55:18.929Z,7.80
2022-10-09T19:00:28.673Z,7.80
2022-10-09T19:05:40.212Z,7.70
2022-10-09T19:10:51.432Z,7.60
2022-10-09T19:16:00.717Z,7.70
2022-10-09T19:21:07.715Z,7.60
2022-10-09T19:26:15.442Z,7.50
2022-10-09T19:31:21.055Z,7.50
2022-10-09T19:36:27.239Z,7.40
2022-10-09T19:41:33.680Z,7.30
2022-10-09T19:46:40.940Z,7.20
2022-10-09T19:51:46.301Z,7.10
2022-10-09T19:56:51.759Z,7.10
2022-10-09T20:01:57.777Z,7.10
2022-10-09T20:07:07.845Z,6.90
2022-10-09T20:12:16.288Z,6.90
2022-10-09T20:17:27.619Z,6.80
2022-10-09T20:22:34.449Z,6.70
2022-10-09T20:33:19.514Z,6.50
2022-10-09T20:38:25.953Z,6.40
2022-10-09T20:43:31.787Z,6.30
2022-10-09T20:48:40.070Z,6.30
2022-10-09T20:53:46.024Z,6.30
2022-10-09T20:58:51.458Z,6.10
2022-10-09T21:04:00.037Z,6.00
2022-10-09T21:09:05.711Z,6.00
2022-10-09T21:14:11.458Z,5.90
2022-10-09T21:19:17.496Z,5.90
2022-10-09T21:24:22.676Z,5.80
2022-10-09T21:29:27.894Z,5.80
2022-10-09T21:34:33.355Z,5.70
2022-10-09T21:39:38.691Z,5.60
2022-10-09T21:44:44.349Z,5.70
2022-10-09T21:49:49.636Z,5.60
2022-10-09T21:54:54.837Z,5.50
2022-10-09T22:00:08.646Z,5.50
2022-10-09T22:05:14.004Z,5.40
2022-10-09T22:10:26.779Z,5.30
2022-10-09T22:15:32.335Z,5.30
2022-10-09T22:20:47.089Z,5.30
2022-10-09T22:26:04.723Z,5.30
2022-10-09T22:31:21.660Z,5.20
2022-10-09T22:36:29.252Z,5.10
2022-10-09T22:41:36.466Z,5.10
2022-10-09T22:46:44.346Z,5.00
2022-10-09T22:51:50.430Z,5.00
2022-10-09T22:56:55.714Z,5.00
2022-10-09T23:02:01.431Z,5.00
2022-10-09T23:07:06.969Z,5.10
2022-10-09T23:12:13.337Z,5.10
2022-10-09T23:17:18.620Z,5.00
2022-10-09T23:22:24.862Z,5.00
2022-10-09T23:27:31.543Z,5.00
2022-10-09T23:32:38.843Z,4.90
2022-10-09T23:37:45.395Z,4.80
2022-10-09T23:42:52.331Z,4.80
2022-10-09T23:48:08.472Z,4.70
2022-10-09T23:53:17.100Z,4.70
2022-10-09T23:58:25.820Z,4.60
